Time;durP1;ratioP1;P1;durP2;ratioP2;P2;SDS_P1;SDS_P2;PMS_P1;PMS_P2;Temp;Humidity;BMP_temperature;BMP_pressure;BME280_temperature;BME280_humidity;BME280_pressure;Samples;Min_cycle;Max_cycle;Signal;HPM_P1;HPM_P2
2020/12/10 00:00:48;;;;;;;;;23.30;19.90;;;;;-6.26;80.46;101010.69;499001;108;383664;-48
2020/12/10 00:01:50;;;;;;;;;22.89;19.22;;;;;-6.26;80.38;101013.23;495735;108;382493;-50
2020/12/10 00:02:52;;;;;;;;;21.33;15.67;;;;;-6.25;80.35;101005.57;498095;108;383031;-49
2020/12/10 00:03:54;;;;;;;;;19.89;14.78;;;;;-6.23;80.14;101008.97;495761;109;383527;-48
2020/12/10 00:04:56;;;;;;;;;23.67;19.89;;;;;-6.27;80.54;101014.94;498726;108;384501;-48
2020/12/10 00:05:58;;;;;;;;;21.44;19.44;;;;;-6.26;80.44;101008.12;490986;109;383588;-47
2020/12/10 00:07:00;;;;;;;;;19.22;13.22;;;;;-6.24;80.34;101009.83;495769;108;381786;-47
2020/12/10 00:08:01;;;;;;;;;11.11;9.11;;;;;-6.24;80.34;101003.87;492938;109;377519;-48
2020/12/10 00:09:03;;;;;;;;;25.78;22.89;;;;;-6.29;80.54;101008.14;490621;109;382596;-48
2020/12/10 00:10:06;;;;;;;;;21.90;18.60;;;;;-6.28;80.69;101004.73;493464;109;383461;-48
2020/12/10 00:11:09;;;;;;;;;27.91;20.36;;;;;-6.29;80.68;100997.94;496792;108;383552;-48
2020/12/10 00:12:10;;;;;;;;;25.22;19.44;;;;;-6.29;80.68;100997.94;496715;108;382769;-48
2020/12/10 00:13:12;;;;;;;;;11.33;8.89;;;;;-6.30;80.55;100991.13;496020;109;375202;-47
2020/12/10 00:14:14;;;;;;;;;27.11;22.89;;;;;-6.29;80.69;100987.73;496079;109;384048;-48
2020/12/10 00:15:16;;;;;;;;;9.56;9.56;;;;;-6.31;80.71;100984.33;496266;109;374954;-48
2020/12/10 00:16:19;;;;;;;;;25.10;18.70;;;;;-6.33;81.01;100986.89;495734;109;384145;-49
2020/12/10 00:17:25;;;;;;;;;20.11;18.00;;;;;-6.37;80.94;100989.47;499521;108;381778;-48
2020/12/10 00:18:27;;;;;;;;;23.50;19.60;;;;;-6.40;81.07;100987.77;487215;111;384055;-48
2020/12/10 00:19:29;;;;;;;;;19.80;13.50;;;;;-6.35;80.79;100987.75;496810;108;382080;-48
2020/12/10 00:22:36;;;;;;;;;22.40;21.30;;;;;-6.26;80.95;100974.95;486959;109;410355;-48
2020/12/10 00:23:38;;;;;;;;;21.00;20.00;;;;;-6.38;81.01;100975.85;485865;111;382988;-50
2020/12/10 00:24:40;;;;;;;;;18.00;14.11;;;;;-6.39;80.88;100973.31;483863;111;381933;-48
2020/12/10 00:25:42;;;;;;;;;20.56;16.44;;;;;-6.46;81.17;100975.85;485178;111;382031;-48
2020/12/10 00:26:49;;;;;;;;;10.80;7.00;;;;;-6.48;81.31;100962.25;485240;111;377031;-48
2020/12/10 00:27:51;;;;;;;;;21.70;15.40;;;;;-6.41;81.31;100969.88;488687;111;388017;-48
2020/12/10 00:28:53;;;;;;;;;24.89;19.89;;;;;-6.41;81.31;100969.88;483081;111;383760;-49
2020/12/10 00:29:57;;;;;;;;;25.11;19.44;;;;;-6.47;81.46;100965.66;484357;111;385069;-47
2020/12/10 00:30:59;;;;;;;;;21.40;16.10;;;;;-6.47;81.40;100970.76;485772;111;381508;-49
2020/12/10 00:32:01;;;;;;;;;12.00;11.56;;;;;-6.45;81.58;100969.89;488442;111;379145;-48
2020/12/10 00:33:02;;;;;;;;;30.22;21.44;;;;;-6.49;81.36;100967.36;488792;111;384811;-48
2020/12/10 00:34:05;;;;;;;;;22.50;18.80;;;;;-6.49;81.36;100967.36;488030;111;383520;-48
2020/12/10 00:35:08;;;;;;;;;20.60;15.80;;;;;-6.50;81.63;100973.32;489696;111;382795;-48
2020/12/10 00:36:13;;;;;;;;;24.91;16.73;;;;;-6.50;81.77;100969.06;485690;111;381308;-48
2020/12/10 00:37:15;;;;;;;;;13.70;8.20;;;;;-6.50;81.77;100969.06;487660;111;377682;-48
2020/12/10 00:38:17;;;;;;;;;14.00;11.44;;;;;-6.54;81.85;100961.43;484344;111;380995;-47
2020/12/10 00:39:19;;;;;;;;;27.33;20.89;;;;;-6.52;81.82;100969.92;483979;111;383979;-47
2020/12/10 00:40:22;;;;;;;;;25.20;21.50;;;;;-6.56;81.66;100968.24;483083;111;384445;-47
2020/12/10 00:41:24;;;;;;;;;23.67;17.33;;;;;-6.54;81.95;100966.53;487632;111;390565;-47
2020/12/10 00:42:26;;;;;;;;;27.80;21.90;;;;;-6.54;81.95;100966.53;489126;111;384488;-48
2020/12/10 00:43:28;;;;;;;;;25.11;22.33;;;;;-6.59;82.08;100960.59;484921;111;393860;-47
2020/12/10 00:44:30;;;;;;;;;27.89;20.67;;;;;-6.55;81.82;100963.13;487254;111;392120;-48
2020/12/10 00:45:32;;;;;;;;;28.11;22.67;;;;;-6.60;81.74;100961.45;488820;111;383503;-48
2020/12/10 00:46:41;;;;;;;;;21.70;19.60;;;;;-6.61;82.11;100959.72;470797;115;383385;-47
2020/12/10 00:47:43;;;;;;;;;22.30;17.00;;;;;-6.61;82.11;100959.72;461827;117;383090;-47
2020/12/10 00:48:45;;;;;;;;;20.10;12.60;;;;;-6.59;82.04;100961.45;451215;120;377213;-47
2020/12/10 00:49:47;;;;;;;;;28.22;22.11;;;;;-6.57;81.88;100964.84;459198;118;393406;-46
2020/12/10 00:50:49;;;;;;;;;28.33;23.33;;;;;-6.57;81.86;100958.89;459944;118;384144;-48
2020/12/10 00:51:51;;;;;;;;;30.78;21.22;;;;;-6.63;82.17;100957.18;456939;118;386037;-48
2020/12/10 00:52:52;;;;;;;;;29.11;22.78;;;;;-6.63;82.17;100957.18;456848;118;391518;-48
2020/12/10 00:53:54;;;;;;;;;28.44;22.78;;;;;-6.60;82.04;100952.09;453675;118;384051;-48
2020/12/10 00:54:56;;;;;;;;;35.44;30.11;;;;;-6.65;82.24;100956.34;468527;115;385047;-48
2020/12/10 00:55:58;;;;;;;;;34.44;25.11;;;;;-6.60;82.06;100951.25;469132;115;387445;-47
2020/12/10 00:57:00;;;;;;;;;25.56;18.33;;;;;-6.60;82.06;100951.25;458367;118;389358;-48
2020/12/10 00:58:02;;;;;;;;;29.78;24.78;;;;;-6.61;82.22;100952.92;449865;120;384396;-48
2020/12/10 00:59:04;;;;;;;;;12.56;6.56;;;;;-6.61;81.86;100957.17;454610;120;378686;-49
2020/12/10 01:00:07;;;;;;;;;15.90;14.00;;;;;-6.61;81.86;100957.17;458488;117;379195;-48
2020/12/10 01:01:09;;;;;;;;;26.50;20.50;;;;;-6.58;82.13;100941.89;459146;118;382765;-49
2020/12/10 01:02:11;;;;;;;;;21.56;18.33;;;;;-6.61;82.21;100940.16;453136;120;381512;-47
2020/12/10 01:03:13;;;;;;;;;28.44;19.56;;;;;-6.61;82.10;100932.52;457572;118;384246;-47
2020/12/10 01:04:15;;;;;;;;;30.11;22.78;;;;;-6.61;82.10;100932.52;456837;118;391743;-48
2020/12/10 01:05:17;;;;;;;;;16.89;13.56;;;;;-6.63;82.21;100941.02;453892;119;381092;-48
2020/12/10 01:06:21;;;;;;;;;33.30;27.10;;;;;-6.63;82.25;100936.77;445105;121;392924;-47
2020/12/10 01:07:22;;;;;;;;;14.11;10.22;;;;;-6.60;82.26;100943.59;449181;121;379907;-47
2020/12/10 01:08:24;;;;;;;;;24.22;19.78;;;;;-6.60;82.26;100943.59;447101;121;382480;-48
2020/12/10 01:09:26;;;;;;;;;30.44;20.78;;;;;-6.59;81.97;100935.09;443977;122;385436;-48
2020/12/10 01:10:28;;;;;;;;;21.80;19.60;;;;;-6.59;81.97;100935.09;439036;124;382284;-47
2020/12/10 01:11:30;;;;;;;;;35.89;28.67;;;;;-6.64;82.22;100935.08;440647;123;386872;-47
2020/12/10 01:12:32;;;;;;;;;24.56;14.78;;;;;-6.64;82.15;100937.63;472226;115;387568;-47
2020/12/10 01:13:34;;;;;;;;;21.00;15.00;;;;;-6.58;81.98;100926.58;473313;114;380927;-48
2020/12/10 01:14:37;;;;;;;;;15.30;12.30;;;;;-6.58;81.98;100926.58;474868;114;376642;-47
2020/12/10 01:15:39;;;;;;;;;30.67;25.33;;;;;-6.59;81.91;100927.44;476301;114;383957;-48
2020/12/10 01:16:41;;;;;;;;;35.40;23.50;;;;;-6.59;81.91;100927.44;477131;114;388142;-48
2020/12/10 01:17:43;;;;;;;;;31.00;22.80;;;;;-6.59;81.98;100932.54;474426;114;386295;-49
2020/12/10 01:18:45;;;;;;;;;22.33;16.33;;;;;-6.56;81.78;100927.42;472479;114;384936;-47
2020/12/10 01:19:47;;;;;;;;;15.56;8.78;;;;;-6.55;81.82;100934.22;475915;114;380405;-48
2020/12/10 01:20:50;;;;;;;;;30.90;24.20;;;;;-6.55;81.82;100934.22;472106;115;385516;-48
2020/12/10 01:21:52;;;;;;;;;15.11;10.33;;;;;-6.66;82.24;100926.58;469793;115;376486;-47
2020/12/10 01:22:53;;;;;;;;;32.11;21.89;;;;;-6.66;82.24;100926.58;472752;115;385258;-49
2020/12/10 01:23:56;;;;;;;;;19.56;13.11;;;;;-6.62;82.31;100932.52;474678;114;380316;-48
2020/12/10 01:24:58;;;;;;;;;17.60;9.90;;;;;-6.63;82.24;100929.12;470250;116;379447;-47
2020/12/10 01:26:00;;;;;;;;;27.60;18.90;;;;;-6.64;82.31;100927.42;475434;114;385466;-48
2020/12/10 01:27:02;;;;;;;;;17.22;11.89;;;;;-6.63;82.14;100946.98;474836;114;379609;-47
2020/12/10 01:28:04;;;;;;;;;24.33;19.00;;;;;-6.61;82.11;100946.97;475494;114;389805;-47
2020/12/10 01:29:06;;;;;;;;;28.67;21.22;;;;;-6.61;82.11;100946.97;473963;114;386398;-47
2020/12/10 01:30:08;;;;;;;;;18.70;12.50;;;;;-6.60;81.92;100924.03;473221;114;388531;-48
2020/12/10 01:31:13;;;;;;;;;18.67;15.11;;;;;-6.65;82.26;100942.73;474592;114;379007;-49
2020/12/10 01:32:17;;;;;;;;;30.40;20.70;;;;;-6.63;81.95;100941.02;472891;114;385774;-47
2020/12/10 01:33:20;;;;;;;;;6.90;2.10;;;;;-6.63;81.95;100941.02;474989;114;374153;-47
2020/12/10 01:34:22;;;;;;;;;15.00;11.20;;;;;-6.66;82.18;100951.24;476329;114;379646;-48
2020/12/10 01:35:23;;;;;;;;;23.89;18.56;;;;;-6.69;82.20;100941.89;474378;114;383095;-47
2020/12/10 01:36:30;;;;;;;;;16.50;10.50;;;;;-6.69;82.20;100941.89;473655;114;387232;-48
2020/12/10 01:37:32;;;;;;;;;29.00;24.10;;;;;-6.67;82.28;100941.89;470845;114;384645;-48
2020/12/10 01:38:34;;;;;;;;;32.00;26.89;;;;;-6.75;82.27;100945.31;486107;111;386728;-47
2020/12/10 01:39:38;;;;;;;;;24.78;20.78;;;;;-6.73;82.17;100935.11;488176;111;391293;-47
2020/12/10 01:40:40;;;;;;;;;8.30;8.30;;;;;-6.73;82.17;100935.11;485871;111;380500;-47
2020/12/10 01:41:43;;;;;;;;;28.90;21.30;;;;;-6.73;82.47;100940.21;483411;112;384195;-48
2020/12/10 01:42:45;;;;;;;;;17.56;11.78;;;;;-6.80;82.50;100941.94;483465;112;378891;-46
2020/12/10 01:43:47;;;;;;;;;19.78;16.67;;;;;-6.81;82.80;100937.69;486604;111;384111;-47
2020/12/10 01:44:49;;;;;;;;;23.33;12.22;;;;;-6.81;82.80;100937.69;484535;111;379164;-47
2020/12/10 01:45:50;;;;;;;;;27.78;17.33;;;;;-6.87;83.31;100934.28;484712;112;384267;-48
2020/12/10 01:46:53;;;;;;;;;24.89;21.89;;;;;-6.83;83.21;100933.41;484472;111;382122;-49
2020/12/10 01:47:55;;;;;;;;;24.67;21.44;;;;;-6.79;82.70;100932.58;486186;111;384983;-47
2020/12/10 01:48:57;;;;;;;;;22.44;18.00;;;;;-6.79;82.70;100932.58;484688;111;383308;-48
2020/12/10 01:49:58;;;;;;;;;24.89;21.33;;;;;-6.81;83.02;100927.48;487551;111;384321;-48
2020/12/10 01:51:01;;;;;;;;;18.67;17.56;;;;;-6.81;83.02;100927.48;487106;111;383666;-47
2020/12/10 01:52:03;;;;;;;;;19.70;15.40;;;;;-6.79;82.55;100930.88;488018;111;381070;-49
2020/12/10 01:53:05;;;;;;;;;24.20;17.40;;;;;-6.83;82.84;100924.06;486582;111;382116;-48
2020/12/10 01:54:07;;;;;;;;;28.89;21.33;;;;;-6.83;82.84;100924.06;485680;111;383697;-48
2020/12/10 01:55:09;;;;;;;;;29.90;22.00;;;;;-6.89;83.09;100928.33;485632;111;393398;-48
2020/12/10 01:56:12;;;;;;;;;20.40;16.40;;;;;-6.91;83.37;100914.73;486928;111;382819;-48
2020/12/10 01:57:14;;;;;;;;;31.78;27.33;;;;;-6.91;83.37;100914.73;483725;112;392515;-47
2020/12/10 01:58:15;;;;;;;;;16.33;11.56;;;;;-6.91;83.24;100910.48;488650;111;386029;-49
2020/12/10 01:59:17;;;;;;;;;24.67;17.33;;;;;-6.89;83.17;100918.13;483825;112;384980;-48
2020/12/10 02:00:20;;;;;;;;;25.30;19.70;;;;;-6.89;83.04;100920.68;486236;111;386363;-47
2020/12/10 02:01:22;;;;;;;;;11.67;11.67;;;;;-6.94;83.61;100924.95;487887;111;378730;-48
2020/12/10 02:02:24;;;;;;;;;18.60;17.30;;;;;-6.96;83.47;100924.11;482711;113;383742;-48
2020/12/10 02:03:26;;;;;;;;;23.67;22.11;;;;;-6.99;83.75;100929.21;488051;111;389341;-47
2020/12/10 02:04:33;;;;;;;;;24.00;17.78;;;;;-6.96;83.44;100919.86;482826;113;389761;-47
2020/12/10 02:05:42;;;;;;;;;16.20;12.10;;;;;-6.96;83.44;100919.86;482791;112;379333;-49
2020/12/10 02:06:45;;;;;;;;;21.00;14.50;;;;;-6.96;83.55;100931.75;481515;113;380586;-48
2020/12/10 02:07:47;;;;;;;;;18.89;13.00;;;;;-6.95;83.35;100916.45;483905;112;380551;-47
2020/12/10 02:08:48;;;;;;;;;22.78;18.33;;;;;-6.95;83.35;100916.45;483816;112;383434;-48
2020/12/10 02:09:51;;;;;;;;;23.40;18.10;;;;;-6.94;83.58;100917.30;486470;111;383329;-47
2020/12/10 02:10:53;;;;;;;;;26.33;24.89;;;;;-7.06;83.48;100926.65;487587;111;383674;-49
2020/12/10 02:11:55;;;;;;;;;5.89;1.33;;;;;-7.06;83.48;100926.65;483640;112;380730;-48
2020/12/10 02:12:57;;;;;;;;;27.22;22.89;;;;;-7.03;83.94;100925.79;486288;111;384032;-49
2020/12/10 02:13:58;;;;;;;;;21.67;16.22;;;;;-7.02;83.58;100924.94;483709;112;382682;-47
2020/12/10 02:15:00;;;;;;;;;15.67;11.89;;;;;-6.96;83.54;100917.30;486760;111;379075;-47
2020/12/10 02:16:03;;;;;;;;;23.30;18.00;;;;;-6.96;83.54;100917.30;484116;111;383160;-47
2020/12/10 02:17:06;;;;;;;;;24.20;16.20;;;;;-6.93;83.46;100912.20;483540;111;381861;-48
2020/12/10 02:18:11;;;;;;;;;23.50;17.60;;;;;-6.93;83.46;100912.20;484532;111;383609;-48
2020/12/10 02:19:13;;;;;;;;;30.30;20.60;;;;;-6.96;83.46;100926.66;484179;111;386707;-48
2020/12/10 02:20:16;;;;;;;;;14.70;14.70;;;;;-6.96;83.45;100922.41;483732;112;382377;-48
2020/12/10 02:21:18;;;;;;;;;14.56;9.44;;;;;-6.96;83.45;100922.41;486406;111;385819;-47
2020/12/10 02:22:20;;;;;;;;;11.11;6.22;;;;;-6.95;83.69;100916.45;488827;111;381755;-48
2020/12/10 02:23:22;;;;;;;;;16.78;14.78;;;;;-6.95;83.69;100916.45;486131;111;382287;-48
2020/12/10 02:24:24;;;;;;;;;25.11;18.67;;;;;-6.94;83.43;100914.75;481869;112;391896;-48
2020/12/10 02:25:26;;;;;;;;;21.22;15.78;;;;;-6.96;83.57;100919.86;481862;113;387735;-47
2020/12/10 02:26:29;;;;;;;;;7.80;3.50;;;;;-6.98;83.57;100930.91;475487;112;376067;-47
2020/12/10 02:27:31;;;;;;;;;14.22;10.00;;;;;-6.98;83.69;100915.61;481481;113;379244;-48
2020/12/10 02:28:34;;;;;;;;;28.20;22.10;;;;;-6.98;83.69;100915.61;481698;113;383704;-47
2020/12/10 02:29:35;;;;;;;;;20.67;15.00;;;;;-7.03;83.79;100920.69;482170;113;382730;-49
2020/12/10 02:30:39;;;;;;;;;19.20;13.60;;;;;-6.98;83.54;100915.61;482000;113;382971;-48
2020/12/10 02:31:41;;;;;;;;;18.40;12.50;;;;;-7.01;83.77;100902.84;484415;112;380941;-47
2020/12/10 02:32:43;;;;;;;;;20.89;12.44;;;;;-7.07;83.94;100901.16;482249;112;388501;-47
2020/12/10 02:33:45;;;;;;;;;19.56;13.11;;;;;-7.07;83.94;100901.16;482092;113;387837;-48
2020/12/10 02:34:46;;;;;;;;;21.22;13.89;;;;;-7.01;83.82;100892.64;482258;112;389085;-47
2020/12/10 02:35:48;;;;;;;;;18.00;15.33;;;;;-7.05;83.75;100891.81;482601;112;381329;-47
2020/12/10 02:36:50;;;;;;;;;16.22;15.56;;;;;-7.05;83.75;100891.81;482030;112;386028;-48
2020/12/10 02:37:55;;;;;;;;;25.11;19.89;;;;;-7.12;84.15;100888.43;481112;113;382795;-47
2020/12/10 02:38:57;;;;;;;;;26.60;17.00;;;;;-7.12;84.15;100888.43;478306;112;386288;-47
2020/12/10 02:39:59;;;;;;;;;24.78;23.22;;;;;-7.13;83.94;100896.08;482443;112;390353;-48
2020/12/10 02:41:01;;;;;;;;;16.78;12.89;;;;;-7.10;83.99;100891.82;482700;112;381702;-48
2020/12/10 02:42:03;;;;;;;;;19.33;14.89;;;;;-7.10;83.99;100891.82;486376;111;381932;-47
2020/12/10 02:43:05;;;;;;;;;28.00;20.22;;;;;-7.12;84.20;100907.97;481780;113;384463;-48
2020/12/10 02:44:06;;;;;;;;;3.00;0.67;;;;;-7.17;84.23;100907.98;483347;112;374901;-48
2020/12/10 02:45:08;;;;;;;;;18.44;17.22;;;;;-7.10;83.99;100908.81;482369;112;383600;-47
2020/12/10 02:46:11;;;;;;;;;22.40;17.80;;;;;-7.10;83.99;100908.81;479620;112;383331;-47
2020/12/10 02:47:13;;;;;;;;;25.78;21.11;;;;;-7.10;84.14;100899.47;482597;113;384041;-47
2020/12/10 02:48:15;;;;;;;;;17.70;12.90;;;;;-7.16;84.34;100914.77;483273;112;384235;-48
2020/12/10 02:49:17;;;;;;;;;19.33;15.22;;;;;-7.13;84.26;100904.58;482687;112;382555;-47
2020/12/10 02:50:20;;;;;;;;;8.73;5.18;;;;;-7.13;84.26;100904.58;482673;112;375192;-47
2020/12/10 02:51:22;;;;;;;;;23.67;18.67;;;;;-7.18;84.46;100902.89;482183;113;384121;-48
2020/12/10 02:52:23;;;;;;;;;22.44;16.89;;;;;-7.18;84.46;100902.89;478015;112;382413;-47
2020/12/10 02:53:25;;;;;;;;;19.89;19.11;;;;;-7.20;84.60;100897.80;482768;112;388075;-47
2020/12/10 02:54:27;;;;;;;;;21.00;17.00;;;;;-7.22;84.62;100894.37;478801;112;382289;-48
2020/12/10 02:55:30;;;;;;;;;18.60;16.40;;;;;-7.23;84.81;100891.83;477414;113;382722;-47
2020/12/10 02:56:34;;;;;;;;;20.80;18.70;;;;;-7.17;84.52;100890.14;472698;114;383698;-48
2020/12/10 02:57:35;;;;;;;;;27.00;20.00;;;;;-7.20;84.60;100886.75;473513;114;383808;-49
2020/12/10 02:58:37;;;;;;;;;13.56;9.33;;;;;-7.15;84.27;100880.79;474051;114;378551;-48
2020/12/10 02:59:39;;;;;;;;;9.22;4.33;;;;;-7.15;84.27;100880.79;476335;114;375761;-47
2020/12/10 03:00:41;;;;;;;;;21.50;18.30;;;;;-7.20;84.32;100877.41;475648;114;383734;-47
2020/12/10 03:01:43;;;;;;;;;24.44;18.00;;;;;-7.27;84.73;100882.49;476134;114;383933;-47
2020/12/10 03:02:45;;;;;;;;;28.78;21.56;;;;;-7.27;84.73;100882.49;474246;114;390458;-47
2020/12/10 03:03:47;;;;;;;;;22.89;14.44;;;;;-7.22;84.73;100878.23;473851;114;381531;-47
2020/12/10 03:04:49;;;;;;;;;16.89;12.89;;;;;-7.22;84.52;100880.78;473354;114;381181;-47
2020/12/10 03:05:51;;;;;;;;;10.89;8.56;;;;;-7.38;84.68;100851.94;474971;114;376067;-47
2020/12/10 03:06:55;;;;;;;;;19.33;14.44;;;;;-7.38;84.68;100851.94;474117;114;382750;-50
2020/12/10 03:07:57;;;;;;;;;17.00;13.30;;;;;-7.24;84.61;100864.64;467530;116;389291;-48
2020/12/10 03:08:59;;;;;;;;;31.33;24.56;;;;;-7.26;84.67;100890.13;473968;114;385945;-48
2020/12/10 03:10:02;;;;;;;;;19.33;14.22;;;;;-7.26;84.67;100890.13;473815;114;381978;-46
2020/12/10 03:11:04;;;;;;;;;5.60;1.20;;;;;-7.29;84.82;100882.50;473978;114;374492;-47
2020/12/10 03:12:06;;;;;;;;;26.67;22.78;;;;;-7.24;84.68;100887.58;474997;114;384056;-47
2020/12/10 03:13:08;;;;;;;;;19.00;12.78;;;;;-7.29;84.74;100885.05;473742;114;383594;-47
2020/12/10 03:14:10;;;;;;;;;29.11;21.22;;;;;-7.29;84.74;100885.05;477485;114;382825;-47
2020/12/10 03:15:12;;;;;;;;;25.33;19.78;;;;;-7.24;84.65;100875.69;473939;114;383171;-47
2020/12/10 03:16:14;;;;;;;;;22.90;18.00;;;;;-7.26;84.77;100876.54;472506;114;390840;-48
2020/12/10 03:17:16;;;;;;;;;31.00;26.67;;;;;-7.28;84.70;100868.91;473628;114;385704;-48
2020/12/10 03:18:18;;;;;;;;;24.56;20.11;;;;;-7.34;84.92;100874.02;474575;114;387954;-48
2020/12/10 03:19:20;;;;;;;;;18.67;13.33;;;;;-7.34;84.92;100874.02;476743;114;381078;-46
2020/12/10 03:20:24;;;;;;;;;27.60;23.90;;;;;-7.27;84.82;100874.84;467521;116;385219;-47
2020/12/10 03:21:26;;;;;;;;;18.78;16.33;;;;;-7.29;84.79;100887.59;465067;117;383019;-48
2020/12/10 03:22:29;;;;;;;;;22.55;18.64;;;;;-7.28;84.64;100871.45;472583;114;383712;-48
2020/12/10 03:23:31;;;;;;;;;20.67;16.89;;;;;-7.27;84.82;100882.49;475407;113;382125;-47
2020/12/10 03:24:33;;;;;;;;;22.67;19.56;;;;;-7.27;84.82;100882.49;475758;113;391537;-47
2020/12/10 03:25:35;;;;;;;;;25.78;20.89;;;;;-7.33;84.80;100888.45;479338;113;385822;-49
2020/12/10 03:26:38;;;;;;;;;23.00;15.80;;;;;-7.31;84.84;100881.65;475140;114;384661;-48
2020/12/10 03:27:40;;;;;;;;;21.89;18.00;;;;;-7.27;84.89;100887.59;476245;113;382916;-47
2020/12/10 03:28:42;;;;;;;;;8.22;5.78;;;;;-7.27;84.89;100887.59;473620;114;375584;-47
2020/12/10 03:29:44;;;;;;;;;24.33;18.11;;;;;-7.73;84.61;100809.50;477164;113;385259;-47
2020/12/10 03:30:47;;;;;;;;;15.70;11.90;;;;;-7.25;84.33;100893.53;476614;113;379793;-47
2020/12/10 03:31:48;;;;;;;;;20.56;15.56;;;;;-7.25;84.33;100893.53;472740;115;382947;-47
2020/12/10 03:32:51;;;;;;;;;9.40;9.40;;;;;-7.30;84.64;100892.69;478477;113;375234;-47
2020/12/10 03:33:53;;;;;;;;;20.56;17.67;;;;;-7.30;84.64;100892.69;479343;113;383001;-48
2020/12/10 03:34:55;;;;;;;;;11.78;6.89;;;;;-7.33;84.77;100873.16;473062;115;376581;-47
2020/12/10 03:35:57;;;;;;;;;15.44;13.44;;;;;-7.33;84.77;100873.16;475319;114;382309;-49
2020/12/10 03:36:59;;;;;;;;;15.67;14.22;;;;;-7.35;84.94;100879.96;477217;113;379290;-49
2020/12/10 03:38:01;;;;;;;;;19.30;17.10;;;;;-7.33;85.12;100879.95;476708;113;383178;-47
2020/12/10 03:39:03;;;;;;;;;23.33;17.89;;;;;-7.33;84.75;100872.31;474702;114;391611;-48
